createdAt,value
2023-07-12T00:00:25.071Z,6.83
2023-07-12T00:02:54.530Z,7.10
2023-07-12T00:05:22.355Z,6.57
2023-07-12T00:07:50.249Z,6.90
2023-07-12T00:10:20.930Z,7.17
2023-07-12T00:12:48.435Z,6.60
2023-07-12T00:15:17.533Z,6.70
2023-07-12T00:17:44.987Z,6.53
2023-07-12T00:20:20.100Z,6.70
2023-07-12T00:22:47.692Z,6.90
2023-07-12T00:25:16.468Z,6.73
2023-07-12T00:27:45.189Z,6.33
2023-07-12T00:30:20.988Z,6.87
2023-07-12T00:32:52.419Z,6.67
2023-07-12T00:35:21.362Z,7.17
2023-07-12T00:37:48.949Z,6.40
2023-07-12T00:40:37.225Z,6.57
2023-07-12T00:43:11.445Z,6.50
2023-07-12T00:45:39.023Z,6.87
2023-07-12T00:48:11.527Z,6.47
2023-07-12T00:50:39.653Z,6.47
2023-07-12T00:53:07.049Z,7.03
2023-07-12T00:55:58.152Z,6.93
2023-07-12T00:58:29.148Z,6.53
2023-07-12T01:00:58.220Z,7.47
2023-07-12T01:03:27.856Z,7.20
2023-07-12T01:05:55.349Z,7.60
2023-07-12T01:08:23.655Z,7.53
2023-07-12T01:10:52.080Z,7.60
2023-07-12T01:13:21.789Z,7.47
2023-07-12T01:15:50.878Z,7.63
2023-07-12T01:18:18.503Z,7.07
2023-07-12T01:20:47.137Z,7.27
2023-07-12T01:23:16.101Z,7.70
2023-07-12T01:25:45.291Z,7.00
2023-07-12T01:28:12.756Z,7.97
2023-07-12T01:30:40.842Z,7.67
2023-07-12T01:33:08.446Z,7.00
2023-07-12T01:35:35.933Z,7.13
2023-07-12T01:38:03.342Z,7.53
2023-07-12T01:40:32.083Z,7.20
2023-07-12T01:42:59.466Z,7.00
2023-07-12T01:45:26.943Z,6.33
2023-07-12T01:47:54.350Z,6.67
2023-07-12T01:50:21.742Z,5.30
2023-07-12T01:52:49.100Z,5.23
2023-07-12T01:55:16.566Z,6.37
2023-07-12T01:57:45.271Z,6.40
2023-07-12T02:00:13.273Z,6.00
2023-07-12T02:02:49.289Z,6.30
2023-07-12T02:05:17.051Z,6.13
2023-07-12T02:07:45.991Z,5.97
2023-07-12T02:10:14.441Z,5.97
2023-07-12T02:12:42.196Z,5.93
2023-07-12T02:15:12.905Z,6.17
2023-07-12T02:17:40.488Z,6.30
2023-07-12T02:20:09.572Z,5.60
2023-07-12T02:22:38.225Z,4.57
2023-07-12T02:25:06.644Z,4.60
2023-07-12T02:27:35.977Z,4.03
2023-07-12T02:30:03.343Z,3.20
2023-07-12T02:32:33.314Z,2.70
2023-07-12T02:35:00.850Z,2.77
2023-07-12T02:37:28.429Z,2.67
2023-07-12T02:39:55.923Z,2.97
2023-07-12T02:42:23.328Z,2.83
2023-07-12T02:44:51.140Z,2.60
2023-07-12T02:47:18.524Z,2.50
2023-07-12T02:49:47.232Z,2.80
2023-07-12T02:52:15.222Z,3.03
2023-07-12T02:54:42.618Z,2.50
2023-07-12T02:57:11.038Z,2.83
2023-07-12T02:59:38.776Z,2.50
2023-07-12T03:02:06.853Z,2.70
2023-07-12T03:04:34.356Z,2.67
2023-07-12T03:07:03.212Z,2.70
2023-07-12T03:09:30.860Z,2.60
2023-07-12T03:11:58.311Z,2.40
2023-07-12T03:14:25.792Z,2.60
2023-07-12T03:16:53.687Z,2.40
2023-07-12T03:19:21.286Z,2.40
2023-07-12T03:21:48.866Z,2.43
2023-07-12T03:24:17.666Z,2.83
2023-07-12T03:26:45.053Z,2.20
2023-07-12T03:29:12.441Z,2.37
2023-07-12T03:31:39.918Z,2.70
2023-07-12T03:34:07.372Z,2.60
2023-07-12T03:36:34.801Z,2.60
2023-07-12T03:39:02.361Z,2.57
2023-07-12T03:41:31.167Z,2.23
2023-07-12T03:43:58.554Z,2.33
2023-07-12T03:46:26.007Z,2.60
2023-07-12T03:48:53.366Z,3.20
2023-07-12T03:51:23.760Z,2.50
2023-07-12T03:53:51.662Z,2.50
2023-07-12T03:56:19.069Z,2.47
2023-07-12T03:58:47.977Z,2.07
2023-07-12T04:01:15.813Z,2.50
2023-07-12T04:03:43.503Z,2.50
2023-07-12T04:06:11.556Z,2.10
2023-07-12T04:08:39.047Z,2.33
2023-07-12T04:11:06.883Z,2.37
2023-07-12T04:13:34.544Z,2.60
2023-07-12T04:16:03.856Z,2.40
2023-07-12T04:18:31.915Z,2.20
2023-07-12T04:21:04.539Z,2.13
2023-07-12T04:23:31.978Z,2.40
2023-07-12T04:26:00.468Z,2.20
2023-07-12T04:28:28.177Z,2.00
2023-07-12T04:30:55.755Z,2.20
2023-07-12T04:33:25.189Z,2.30
2023-07-12T04:35:53.120Z,2.07
2023-07-12T04:38:20.516Z,2.00
2023-07-12T04:40:53.492Z,2.00
2023-07-12T04:43:21.145Z,2.40
2023-07-12T04:45:48.716Z,2.10
2023-07-12T04:48:16.799Z,2.23
2023-07-12T04:50:45.714Z,2.17
2023-07-12T04:53:14.178Z,2.00
2023-07-12T04:55:41.621Z,2.00
2023-07-12T04:58:09.019Z,2.10
2023-07-12T05:00:36.805Z,1.83
2023-07-12T05:03:04.453Z,2.27
2023-07-12T05:05:31.953Z,2.10
2023-07-12T05:08:00.730Z,2.10
2023-07-12T05:10:28.170Z,1.70
2023-07-12T05:12:55.529Z,1.87
2023-07-12T05:15:22.933Z,1.60
2023-07-12T05:17:50.417Z,1.70
2023-07-12T05:20:19.096Z,1.73
2023-07-12T05:22:48.468Z,1.70
2023-07-12T05:25:17.475Z,1.47
2023-07-12T05:27:45.204Z,1.50
2023-07-12T05:30:13.271Z,1.60
2023-07-12T05:32:41.866Z,1.53
2023-07-12T05:35:09.644Z,2.03
2023-07-12T05:37:37.071Z,1.40
2023-07-12T05:40:05.669Z,1.60
2023-07-12T05:42:34.659Z,1.40
2023-07-12T05:45:02.067Z,1.60
2023-07-12T05:47:29.534Z,1.53
2023-07-12T05:49:58.110Z,1.33
2023-07-12T05:52:25.535Z,1.40
2023-07-12T05:54:52.995Z,1.87
2023-07-12T05:57:20.391Z,1.30
2023-07-12T05:59:49.577Z,1.30
2023-07-12T06:02:17.092Z,1.40
2023-07-12T06:04:44.521Z,1.23
2023-07-12T06:07:11.931Z,1.50
2023-07-12T06:09:39.320Z,1.60
2023-07-12T06:12:07.211Z,1.53
2023-07-12T06:14:34.724Z,1.30
2023-07-12T06:17:03.540Z,1.43
2023-07-12T06:19:30.949Z,1.50
2023-07-12T06:21:58.518Z,1.23
2023-07-12T06:24:25.967Z,1.10
2023-07-12T06:26:53.336Z,1.27
2023-07-12T06:29:20.756Z,1.27
2023-07-12T06:31:48.475Z,1.27
2023-07-12T06:34:17.200Z,1.20
2023-07-12T06:36:44.846Z,1.20
2023-07-12T06:39:12.230Z,1.00
2023-07-12T06:41:39.609Z,1.10
2023-07-12T06:44:07.494Z,1.10
2023-07-12T06:46:35.577Z,1.10
2023-07-12T06:49:03.501Z,1.10
2023-07-12T06:51:32.765Z,0.90
2023-07-12T06:54:00.153Z,1.20
2023-07-12T06:56:27.865Z,1.20
2023-07-12T06:58:55.347Z,1.07
2023-07-12T07:01:22.913Z,1.30
2023-07-12T07:03:50.318Z,1.30
2023-07-12T07:06:18.595Z,1.43
2023-07-12T07:08:48.603Z,1.33
2023-07-12T07:11:16.040Z,1.10
2023-07-12T07:13:44.409Z,0.97
2023-07-12T07:16:12.464Z,1.10
2023-07-12T07:18:39.963Z,1.13
2023-07-12T07:21:07.704Z,1.10
2023-07-12T07:23:35.487Z,0.97
2023-07-12T07:26:04.856Z,0.73
2023-07-12T07:28:32.322Z,0.80
2023-07-12T07:31:01.362Z,0.93
2023-07-12T07:33:29.166Z,0.97
2023-07-12T07:35:56.546Z,0.80
2023-07-12T07:38:28.066Z,0.90
2023-07-12T07:40:55.918Z,0.90
2023-07-12T07:43:24.679Z,0.90
2023-07-12T07:45:53.121Z,0.90
2023-07-12T07:48:20.575Z,1.00
2023-07-12T07:50:48.209Z,0.87
2023-07-12T07:53:15.684Z,0.93
2023-07-12T07:55:43.487Z,0.80
2023-07-12T07:58:11.037Z,0.87
2023-07-12T08:00:40.097Z,0.90
2023-07-12T08:03:08.667Z,0.83
2023-07-12T08:05:36.449Z,0.90
2023-07-12T08:08:03.829Z,1.10
2023-07-12T08:10:33.125Z,1.33
2023-07-12T08:13:00.871Z,0.80
2023-07-12T08:15:28.395Z,0.97
2023-07-12T08:17:57.582Z,0.90
2023-07-12T08:20:26.192Z,1.07
2023-07-12T08:22:53.587Z,0.80
2023-07-12T08:25:21.153Z,0.93
2023-07-12T08:27:48.690Z,1.47
2023-07-12T08:30:16.168Z,1.23
2023-07-12T08:32:43.595Z,1.20
2023-07-12T08:35:12.945Z,1.33
2023-07-12T08:37:40.980Z,1.40
2023-07-12T08:40:09.080Z,1.20
2023-07-12T08:42:37.810Z,1.50
2023-07-12T08:45:16.195Z,1.50
2023-07-12T08:47:44.834Z,1.40
2023-07-12T08:50:15.153Z,1.23
2023-07-12T08:52:42.642Z,1.27
2023-07-12T08:55:14.399Z,1.40
2023-07-12T08:57:42.716Z,1.50
2023-07-12T09:00:12.389Z,1.70
2023-07-12T09:02:39.908Z,1.60
2023-07-12T09:05:12.513Z,1.70
2023-07-12T09:07:43.807Z,1.60
2023-07-12T09:10:11.256Z,1.50
2023-07-12T09:12:38.658Z,1.67
2023-07-12T09:15:07.699Z,1.50
2023-07-12T09:17:41.042Z,1.67
2023-07-12T09:20:19.190Z,1.77
2023-07-12T09:22:50.028Z,1.70
2023-07-12T09:25:21.828Z,1.63
2023-07-12T09:27:49.377Z,1.43
2023-07-12T09:30:20.504Z,1.93
2023-07-12T09:32:49.491Z,1.60
2023-07-12T09:35:25.104Z,1.70
2023-07-12T09:37:57.690Z,1.80
2023-07-12T09:40:25.373Z,1.80
2023-07-12T09:42:57.763Z,2.07
2023-07-12T09:45:28.862Z,2.00
2023-07-12T09:48:01.995Z,2.17
2023-07-12T09:50:36.291Z,2.30
2023-07-12T09:53:06.409Z,2.10
2023-07-12T09:55:40.268Z,2.47
2023-07-12T09:58:14.746Z,2.10
2023-07-12T10:00:44.814Z,2.90
2023-07-12T10:03:16.143Z,2.40
2023-07-12T10:05:46.262Z,2.50
2023-07-12T10:08:15.981Z,2.57
2023-07-12T10:10:46.311Z,2.57
2023-07-12T10:13:22.300Z,2.60
2023-07-12T10:15:50.311Z,3.10
2023-07-12T10:18:19.734Z,2.93
2023-07-12T10:20:48.768Z,2.50
2023-07-12T10:23:18.877Z,2.60
2023-07-12T10:25:50.880Z,3.17
2023-07-12T10:28:22.182Z,2.70
2023-07-12T10:30:50.589Z,3.00
2023-07-12T10:33:22.887Z,2.70
2023-07-12T10:35:53.201Z,3.10
2023-07-12T10:38:23.123Z,2.90
2023-07-12T10:40:52.034Z,3.00
2023-07-12T10:43:22.017Z,3.13
2023-07-12T10:45:51.806Z,2.77
2023-07-12T10:48:22.873Z,3.40
2023-07-12T10:50:50.995Z,2.90
2023-07-12T10:53:34.178Z,2.90
2023-07-12T10:56:14.346Z,3.10
2023-07-12T10:58:49.967Z,2.97
2023-07-12T11:01:36.187Z,2.77
2023-07-12T11:04:08.104Z,1.80
2023-07-12T11:06:35.954Z,2.20
2023-07-12T11:09:08.849Z,1.57
2023-07-12T11:11:50.254Z,1.17
2023-07-12T11:14:18.605Z,1.27
2023-07-12T11:16:47.651Z,1.43
2023-07-12T11:19:35.614Z,0.87
2023-07-12T11:22:04.599Z,1.30
2023-07-12T11:24:32.690Z,1.10
2023-07-12T11:27:02.532Z,1.27
2023-07-12T11:29:31.675Z,1.43
2023-07-12T11:32:06.255Z,1.63
2023-07-12T11:34:38.195Z,1.90
2023-07-12T11:37:11.673Z,2.43
2023-07-12T11:39:39.490Z,2.80
2023-07-12T11:42:23.754Z,2.27
2023-07-12T11:44:59.945Z,2.60
2023-07-12T11:47:27.890Z,3.00
2023-07-12T11:49:56.855Z,3.13
2023-07-12T11:52:24.551Z,3.27
2023-07-12T11:54:54.204Z,3.50
2023-07-12T11:57:23.453Z,3.50
2023-07-12T11:59:52.117Z,3.30
2023-07-12T12:02:20.470Z,3.20
2023-07-12T12:04:50.146Z,3.37
2023-07-12T12:07:22.107Z,3.30
2023-07-12T12:09:50.168Z,3.60
2023-07-12T12:12:19.082Z,3.80
2023-07-12T12:14:49.228Z,2.90
2023-07-12T12:17:17.637Z,3.47
2023-07-12T12:19:49.256Z,4.10
2023-07-12T12:22:18.627Z,3.63
2023-07-12T12:24:48.636Z,3.50
2023-07-12T12:27:21.391Z,3.30
2023-07-12T12:29:50.960Z,3.57
2023-07-12T12:32:20.742Z,4.30
2023-07-12T12:34:52.984Z,3.23
2023-07-12T12:37:21.141Z,2.77
2023-07-12T12:39:58.706Z,3.40
2023-07-12T12:42:27.057Z,3.43
2023-07-12T12:44:56.536Z,3.30
2023-07-12T12:47:24.917Z,3.17
2023-07-12T12:55:01.072Z,3.47
2023-07-12T13:05:30.025Z,3.10
2023-07-12T13:10:09.660Z,3.10
2023-07-12T13:17:17.755Z,3.83
2023-07-12T13:19:07.250Z,3.20
2023-07-12T13:21:18.846Z,2.97
2023-07-12T13:23:46.500Z,2.90
2023-07-12T13:26:14.632Z,2.57
2023-07-12T13:28:42.225Z,2.53
2023-07-12T13:31:12.740Z,2.50
2023-07-12T13:33:40.429Z,2.43
2023-07-12T13:36:10.252Z,3.23
2023-07-12T13:46:15.557Z,2.20
2023-07-12T13:48:43.954Z,1.43
2023-07-12T13:51:17.725Z,1.83
2023-07-12T13:53:45.308Z,1.77
2023-07-12T13:59:01.857Z,1.90
2023-07-12T14:04:03.871Z,1.67
2023-07-12T14:06:56.537Z,1.63
2023-07-12T14:09:20.109Z,1.73
2023-07-12T14:11:48.068Z,1.73
2023-07-12T14:14:16.044Z,1.53
2023-07-12T14:16:44.918Z,1.40
2023-07-12T14:19:12.375Z,1.50
2023-07-12T14:21:39.868Z,1.40
2023-07-12T14:24:07.429Z,1.67
2023-07-12T14:26:35.387Z,1.53
2023-07-12T14:29:05.459Z,1.50
2023-07-12T14:31:35.323Z,1.33
2023-07-12T14:34:05.575Z,1.50
2023-07-12T14:36:33.612Z,1.20
2023-07-12T14:39:01.669Z,1.20
2023-07-12T14:41:30.223Z,1.70
2023-07-12T14:44:00.740Z,1.40
2023-07-12T14:46:28.299Z,1.30
2023-07-12T14:48:55.890Z,1.27
2023-07-12T14:51:25.078Z,1.30
2023-07-12T14:53:52.876Z,1.57
2023-07-12T14:56:21.609Z,1.50
2023-07-12T14:58:49.187Z,1.50
2023-07-12T15:01:21.562Z,1.67
2023-07-12T15:03:49.338Z,1.57
2023-07-12T15:06:16.841Z,1.67
2023-07-12T15:08:46.191Z,1.33
2023-07-12T15:11:19.712Z,1.40
2023-07-12T15:13:47.774Z,1.40
2023-07-12T15:16:16.412Z,1.43
2023-07-12T15:18:44.016Z,1.50
2023-07-12T15:21:19.782Z,1.60
2023-07-12T15:23:48.577Z,1.30
2023-07-12T15:26:17.214Z,1.33
2023-07-12T15:28:46.924Z,1.20
2023-07-12T15:31:19.025Z,1.87
2023-07-12T15:33:46.937Z,1.27
2023-07-12T15:36:14.978Z,1.23
2023-07-12T15:38:42.568Z,1.47
2023-07-12T15:41:13.694Z,1.30
2023-07-12T15:43:42.008Z,1.00
2023-07-12T15:46:13.904Z,1.40
2023-07-12T15:48:41.773Z,1.10
2023-07-12T15:51:11.115Z,1.47
2023-07-12T15:53:38.740Z,1.10
2023-07-12T15:56:06.168Z,1.10
2023-07-12T15:58:35.293Z,1.20
2023-07-12T16:01:04.595Z,1.20
2023-07-12T16:03:32.906Z,1.13
2023-07-12T16:06:01.007Z,0.97
2023-07-12T16:08:28.858Z,0.93
2023-07-12T16:10:57.006Z,0.90
2023-07-12T16:13:25.970Z,1.20
2023-07-12T16:15:55.054Z,1.10
2023-07-12T16:18:23.502Z,1.43
2023-07-12T16:20:52.675Z,1.20
2023-07-12T16:23:20.648Z,1.13
2023-07-12T16:25:48.897Z,1.47
2023-07-12T16:28:16.431Z,1.13
2023-07-12T16:30:44.299Z,1.60
2023-07-12T16:33:17.696Z,1.47
2023-07-12T16:35:45.224Z,1.20
2023-07-12T16:38:20.433Z,1.60
2023-07-12T16:40:48.825Z,1.27
2023-07-12T16:43:17.918Z,1.50
2023-07-12T16:45:45.666Z,1.17
2023-07-12T16:48:13.424Z,1.30
2023-07-12T16:50:42.594Z,1.23
2023-07-12T16:53:12.181Z,1.33
2023-07-12T16:55:41.419Z,1.27
2023-07-12T16:58:19.208Z,1.37
2023-07-12T17:00:47.505Z,1.40
2023-07-12T17:03:15.555Z,1.10
2023-07-12T17:05:44.905Z,1.40
2023-07-12T17:08:16.816Z,1.10
2023-07-12T17:10:44.491Z,1.20
2023-07-12T17:13:12.411Z,1.00
2023-07-12T17:15:42.230Z,1.30
2023-07-12T17:18:11.170Z,1.40
2023-07-12T17:20:38.663Z,1.57
2023-07-12T17:23:13.556Z,1.13
2023-07-12T17:25:41.281Z,1.20
2023-07-12T17:28:16.792Z,1.10
2023-07-12T17:30:45.040Z,1.20
2023-07-12T17:33:13.331Z,1.30
2023-07-12T17:35:40.786Z,1.10
2023-07-12T17:38:13.175Z,1.20
2023-07-12T17:40:41.373Z,1.30
2023-07-12T17:43:14.351Z,1.60
2023-07-12T17:45:41.929Z,1.20
2023-07-12T17:48:10.353Z,1.20
2023-07-12T17:50:38.963Z,1.50
2023-07-12T17:53:06.822Z,1.20
2023-07-12T17:55:35.673Z,1.00
2023-07-12T17:58:03.384Z,1.10
2023-07-12T18:00:31.002Z,1.27
2023-07-12T18:02:58.650Z,1.20
2023-07-12T18:05:28.085Z,1.00
2023-07-12T18:07:55.885Z,1.10
2023-07-12T18:10:23.406Z,1.20
2023-07-12T18:12:52.253Z,1.30
2023-07-12T18:15:22.895Z,1.30
2023-07-12T18:17:50.655Z,1.20
2023-07-12T18:20:18.355Z,1.30
2023-07-12T18:22:45.875Z,1.13
2023-07-12T18:25:14.779Z,1.10
2023-07-12T18:27:43.052Z,0.80
2023-07-12T18:30:12.598Z,1.23
2023-07-12T18:32:40.231Z,1.20
2023-07-12T18:35:16.843Z,1.20
2023-07-12T18:37:44.272Z,2.10
2023-07-12T18:40:12.500Z,1.10
2023-07-12T18:42:42.230Z,1.60
2023-07-12T18:45:18.266Z,1.20
2023-07-12T18:47:49.373Z,1.40
2023-07-12T18:50:17.701Z,1.07
2023-07-12T18:52:45.176Z,1.40
2023-07-12T18:55:13.600Z,1.20
2023-07-12T18:57:41.303Z,1.30
2023-07-12T19:00:11.955Z,1.20
2023-07-12T19:02:43.136Z,1.33
2023-07-12T19:05:18.143Z,1.20
2023-07-12T19:07:45.519Z,1.13
2023-07-12T19:10:13.873Z,1.30
2023-07-12T19:12:41.297Z,1.20
2023-07-12T19:15:13.559Z,1.40
2023-07-12T19:17:42.434Z,1.33
2023-07-12T19:20:10.759Z,1.10
2023-07-12T19:22:38.889Z,1.27
2023-07-12T19:25:06.792Z,1.20
2023-07-12T19:27:43.253Z,1.10
2023-07-12T19:30:13.155Z,1.27
2023-07-12T19:32:41.997Z,1.33
2023-07-12T19:35:16.493Z,1.10
2023-07-12T19:37:44.574Z,1.10
2023-07-12T19:40:12.244Z,1.10
2023-07-12T19:42:39.706Z,1.17
2023-07-12T19:45:07.873Z,1.20
2023-07-12T19:47:35.367Z,1.30
2023-07-12T19:50:05.468Z,1.30
2023-07-12T19:52:33.005Z,1.30
2023-07-12T19:55:00.465Z,1.10
2023-07-12T19:57:27.848Z,1.30
2023-07-12T19:59:55.262Z,1.20
2023-07-12T20:02:24.245Z,1.30
2023-07-12T20:04:51.833Z,1.13
2023-07-12T20:07:28.015Z,1.30
2023-07-12T20:09:55.732Z,1.40
2023-07-12T20:12:23.684Z,1.20
2023-07-12T20:14:51.109Z,1.23
2023-07-12T20:17:19.979Z,1.40
2023-07-12T20:19:47.464Z,1.53
2023-07-12T20:22:15.290Z,1.30
2023-07-12T20:24:46.039Z,1.70
2023-07-12T20:27:13.475Z,1.43
2023-07-12T20:29:40.930Z,1.27
2023-07-12T20:32:11.801Z,1.63
2023-07-12T20:34:39.545Z,1.60
2023-07-12T20:37:07.264Z,1.40
2023-07-12T20:39:39.030Z,1.60
2023-07-12T20:42:08.594Z,1.50
2023-07-12T20:44:37.846Z,1.50
2023-07-12T20:47:05.668Z,1.57
2023-07-12T20:49:40.060Z,1.30
2023-07-12T20:52:09.097Z,1.50
2023-07-12T20:54:36.523Z,1.57
2023-07-12T20:57:04.087Z,1.17
2023-07-12T20:59:32.848Z,1.40
2023-07-12T21:02:00.795Z,1.27
2023-07-12T21:04:28.680Z,1.60
2023-07-12T21:06:56.428Z,1.33
2023-07-12T21:09:24.055Z,1.50
2023-07-12T21:11:51.672Z,1.60
2023-07-12T21:14:20.417Z,1.60
2023-07-12T21:16:49.665Z,1.37
2023-07-12T21:19:17.233Z,1.50
2023-07-12T21:21:44.767Z,1.40
2023-07-12T21:24:12.327Z,1.30
2023-07-12T21:26:39.870Z,1.37
2023-07-12T21:29:09.725Z,1.40
2023-07-12T21:31:37.816Z,1.63
2023-07-12T21:34:06.871Z,1.40
2023-07-12T21:36:34.696Z,1.50
2023-07-12T21:39:02.222Z,1.23
2023-07-12T21:41:29.726Z,1.30
2023-07-12T21:43:57.250Z,1.17
2023-07-12T21:46:24.957Z,1.50
2023-07-12T21:48:52.561Z,1.50
2023-07-12T21:51:22.197Z,1.43
2023-07-12T21:53:49.785Z,1.30
2023-07-12T21:56:17.295Z,1.33
2023-07-12T21:58:45.005Z,1.40
2023-07-12T22:01:13.984Z,1.50
2023-07-12T22:03:42.149Z,1.40
2023-07-12T22:06:12.598Z,1.40
2023-07-12T22:08:41.606Z,1.20
2023-07-12T22:11:09.866Z,1.50
2023-07-12T22:13:37.431Z,1.37
2023-07-12T22:16:05.343Z,1.70
2023-07-12T22:18:45.893Z,1.60
2023-07-12T22:21:17.048Z,1.43
2023-07-12T22:23:46.183Z,1.60
2023-07-12T22:26:15.510Z,1.50
2023-07-12T22:28:43.168Z,1.33
2023-07-12T22:31:10.817Z,1.60
2023-07-12T22:33:38.430Z,1.50
2023-07-12T22:36:07.626Z,1.37
2023-07-12T22:38:35.924Z,1.63
2023-07-12T22:41:05.822Z,1.40
2023-07-12T22:43:34.044Z,1.20
2023-07-12T22:46:03.803Z,1.20
2023-07-12T22:48:31.666Z,1.30
2023-07-12T22:50:59.678Z,1.53
2023-07-12T22:53:27.221Z,1.40
2023-07-12T22:55:58.496Z,1.60
2023-07-12T22:58:27.866Z,1.70
2023-07-12T23:00:55.677Z,1.43
2023-07-12T23:03:23.449Z,1.23
2023-07-12T23:05:57.076Z,1.20
2023-07-12T23:08:24.906Z,1.47
2023-07-12T23:10:54.566Z,1.40
2023-07-12T23:13:24.274Z,1.17
2023-07-12T23:15:53.610Z,1.10
2023-07-12T23:18:22.376Z,1.27
2023-07-12T23:20:50.063Z,1.00
2023-07-12T23:23:20.596Z,1.20
2023-07-12T23:25:48.290Z,1.10
2023-07-12T23:28:15.965Z,1.10
2023-07-12T23:30:43.589Z,1.40
2023-07-12T23:33:12.320Z,1.20
2023-07-12T23:35:39.901Z,1.20
2023-07-12T23:38:07.507Z,1.30
2023-07-12T23:40:34.924Z,1.20
2023-07-12T23:43:02.662Z,1.30
2023-07-12T23:45:35.767Z,1.20
2023-07-12T23:48:03.553Z,1.33
2023-07-12T23:50:34.347Z,1.73
2023-07-12T23:53:02.015Z,1.50
2023-07-12T23:55:31.347Z,1.40
2023-07-12T23:57:59.700Z,1.67
